MMUN/CUN METAR and TAF weather

Enter ICAO airport designator
Station Type Date Time Source
MMUN METAR 2020/07/05 15:45 UTC NOAA

MMUN 051545Z 15008KT 7SM SCT015 BKN250 31/25 A2999 RMK 8/108 AC


Station Type Date Time Source
MMUN Decoded METAR 2020/07/05 15:45 UTC NOAA

Cancun International Airport, Mexico (MMUN) 21-02N 086-52W
Jul 05, 2020 - 11:45 AM EDT / 2020.07.05 1545 UTC
Wind: from the SSE (150 degrees) at 9 MPH (8 KT):0
Visibility: 7 mile(s):0
Sky conditions: mostly cloudy
Temperature: 87 F (31 C)
Heat index: 97.5 F (36.4 C):1
Dew Point: 77 F (25 C)
Relative Humidity: 70%
Pressure (altimeter): 29.99 in. Hg (1015 hPa)
ob: MMUN 051545Z 15008KT 7SM SCT015 BKN250 31/25 A2999 RMK 8/108 AC
cycle: 16

Station Type Date Time Source
MMUN TAF 2020/07/05 12:35 UTC NOAA

TAF MMUN 051028Z 0512/0618 08005KT P6SM SCT015 BKN100 TX31/0520Z TN24/0512Z
FM051600 12010KT P6SM SCT015 SCT100
FM060200 13005KT P6SM SCT015 SCT250
FM061600 12010KT P6SM SCT015

Example: see airport list